sensor_id;sensor_type;location;lat;lon;timestamp;P1;durP1;ratioP1;P2;durP2;ratioP2
9461;SDS011;4769;42.660;23.262;2023-02-07T00:00:19;10.03;;;6.77;;
9461;SDS011;4769;42.660;23.262;2023-02-07T00:02:48;9.03;;;5.97;;
9461;SDS011;4769;42.660;23.262;2023-02-07T00:05:15;7.20;;;5.40;;
9461;SDS011;4769;42.660;23.262;2023-02-07T00:07:41;7.27;;;5.63;;
9461;SDS011;4769;42.660;23.262;2023-02-07T00:10:09;8.17;;;5.40;;
9461;SDS011;4769;42.660;23.262;2023-02-07T00:12:36;8.27;;;5.53;;
9461;SDS011;4769;42.660;23.262;2023-02-07T00:15:03;7.90;;;5.67;;
9461;SDS011;4769;42.660;23.262;2023-02-07T00:17:30;8.57;;;5.73;;
9461;SDS011;4769;42.660;23.262;2023-02-07T00:19:59;8.27;;;6.23;;
9461;SDS011;4769;42.660;23.262;2023-02-07T00:22:26;10.03;;;6.73;;
9461;SDS011;4769;42.660;23.262;2023-02-07T00:24:53;7.80;;;5.93;;
9461;SDS011;4769;42.660;23.262;2023-02-07T00:27:20;7.03;;;5.53;;
9461;SDS011;4769;42.660;23.262;2023-02-07T00:29:47;7.67;;;6.00;;
9461;SDS011;4769;42.660;23.262;2023-02-07T00:32:13;8.77;;;6.50;;
9461;SDS011;4769;42.660;23.262;2023-02-07T00:34:40;8.67;;;6.50;;
9461;SDS011;4769;42.660;23.262;2023-02-07T00:37:09;10.40;;;8.27;;
9461;SDS011;4769;42.660;23.262;2023-02-07T00:39:35;11.90;;;7.70;;
9461;SDS011;4769;42.660;23.262;2023-02-07T00:42:03;9.17;;;6.80;;
9461;SDS011;4769;42.660;23.262;2023-02-07T00:44:31;10.83;;;7.17;;
9461;SDS011;4769;42.660;23.262;2023-02-07T00:46:58;9.87;;;7.13;;
9461;SDS011;4769;42.660;23.262;2023-02-07T00:49:25;12.27;;;7.37;;
9461;SDS011;4769;42.660;23.262;2023-02-07T00:51:52;11.43;;;6.70;;
9461;SDS011;4769;42.660;23.262;2023-02-07T00:54:20;11.50;;;7.70;;
9461;SDS011;4769;42.660;23.262;2023-02-07T00:56:47;9.43;;;6.90;;
9461;SDS011;4769;42.660;23.262;2023-02-07T00:59:14;10.53;;;7.33;;
9461;SDS011;4769;42.660;23.262;2023-02-07T01:01:41;11.10;;;7.63;;
9461;SDS011;4769;42.660;23.262;2023-02-07T01:04:07;9.20;;;6.37;;
9461;SDS011;4769;42.660;23.262;2023-02-07T01:06:34;9.33;;;6.50;;
9461;SDS011;4769;42.660;23.262;2023-02-07T01:09:02;9.40;;;6.93;;
9461;SDS011;4769;42.660;23.262;2023-02-07T01:11:32;10.13;;;7.17;;
9461;SDS011;4769;42.660;23.262;2023-02-07T01:14:00;9.07;;;6.27;;
9461;SDS011;4769;42.660;23.262;2023-02-07T01:16:27;12.10;;;7.40;;
9461;SDS011;4769;42.660;23.262;2023-02-07T01:18:56;12.73;;;8.57;;
9461;SDS011;4769;42.660;23.262;2023-02-07T01:21:24;11.03;;;7.33;;
9461;SDS011;4769;42.660;23.262;2023-02-07T01:23:52;11.60;;;7.77;;
9461;SDS011;4769;42.660;23.262;2023-02-07T01:26:21;15.63;;;9.20;;
9461;SDS011;4769;42.660;23.262;2023-02-07T01:28:49;14.23;;;9.23;;
9461;SDS011;4769;42.660;23.262;2023-02-07T01:31:16;11.53;;;7.47;;
9461;SDS011;4769;42.660;23.262;2023-02-07T01:33:43;24.03;;;10.83;;
9461;SDS011;4769;42.660;23.262;2023-02-07T01:36:10;27.40;;;12.73;;
9461;SDS011;4769;42.660;23.262;2023-02-07T01:38:38;19.63;;;10.23;;
9461;SDS011;4769;42.660;23.262;2023-02-07T01:41:05;19.53;;;9.00;;
9461;SDS011;4769;42.660;23.262;2023-02-07T01:43:33;11.57;;;7.37;;
9461;SDS011;4769;42.660;23.262;2023-02-07T01:46:01;11.57;;;7.13;;
9461;SDS011;4769;42.660;23.262;2023-02-07T01:48:29;8.97;;;6.10;;
9461;SDS011;4769;42.660;23.262;2023-02-07T01:51:04;9.87;;;7.17;;
9461;SDS011;4769;42.660;23.262;2023-02-07T01:53:34;9.07;;;6.67;;
9461;SDS011;4769;42.660;23.262;2023-02-07T01:56:04;9.53;;;6.57;;
9461;SDS011;4769;42.660;23.262;2023-02-07T01:58:33;9.87;;;6.57;;
9461;SDS011;4769;42.660;23.262;2023-02-07T02:01:03;8.60;;;6.70;;
9461;SDS011;4769;42.660;23.262;2023-02-07T02:03:35;10.33;;;6.83;;
9461;SDS011;4769;42.660;23.262;2023-02-07T02:06:08;12.33;;;6.80;;
9461;SDS011;4769;42.660;23.262;2023-02-07T02:08:36;8.30;;;5.93;;
9461;SDS011;4769;42.660;23.262;2023-02-07T02:11:09;9.00;;;5.97;;
9461;SDS011;4769;42.660;23.262;2023-02-07T02:13:48;8.37;;;6.00;;
9461;SDS011;4769;42.660;23.262;2023-02-07T02:16:22;8.63;;;6.83;;
9461;SDS011;4769;42.660;23.262;2023-02-07T02:19:00;8.33;;;6.53;;
9461;SDS011;4769;42.660;23.262;2023-02-07T02:30:55;7.60;;;5.63;;
9461;SDS011;4769;42.660;23.262;2023-02-07T02:33:40;8.73;;;5.30;;
9461;SDS011;4769;42.660;23.262;2023-02-07T02:36:14;6.77;;;5.00;;
9461;SDS011;4769;42.660;23.262;2023-02-07T02:38:52;7.30;;;5.77;;
9461;SDS011;4769;42.660;23.262;2023-02-07T02:41:27;7.93;;;6.37;;
9461;SDS011;4769;42.660;23.262;2023-02-07T02:44:00;8.37;;;6.20;;
9461;SDS011;4769;42.660;23.262;2023-02-07T02:46:32;8.00;;;5.77;;
9461;SDS011;4769;42.660;23.262;2023-02-07T02:49:03;9.10;;;6.13;;
9461;SDS011;4769;42.660;23.262;2023-02-07T02:51:33;8.03;;;6.17;;
9461;SDS011;4769;42.660;23.262;2023-02-07T02:54:00;9.23;;;7.07;;
9461;SDS011;4769;42.660;23.262;2023-02-07T02:56:31;8.77;;;6.53;;
9461;SDS011;4769;42.660;23.262;2023-02-07T02:59:11;9.27;;;7.10;;
9461;SDS011;4769;42.660;23.262;2023-02-07T03:01:59;9.23;;;6.83;;
9461;SDS011;4769;42.660;23.262;2023-02-07T03:04:49;9.27;;;6.30;;
9461;SDS011;4769;42.660;23.262;2023-02-07T03:07:32;8.83;;;6.30;;
9461;SDS011;4769;42.660;23.262;2023-02-07T03:10:12;7.40;;;5.53;;
9461;SDS011;4769;42.660;23.262;2023-02-07T03:12:50;7.93;;;5.97;;
9461;SDS011;4769;42.660;23.262;2023-02-07T03:15:25;8.23;;;5.53;;
9461;SDS011;4769;42.660;23.262;2023-02-07T03:18:03;8.80;;;5.57;;
9461;SDS011;4769;42.660;23.262;2023-02-07T03:20:37;8.97;;;5.70;;
9461;SDS011;4769;42.660;23.262;2023-02-07T03:23:08;10.10;;;5.87;;
9461;SDS011;4769;42.660;23.262;2023-02-07T03:25:37;7.20;;;5.70;;
9461;SDS011;4769;42.660;23.262;2023-02-07T03:28:06;9.63;;;5.67;;
9461;SDS011;4769;42.660;23.262;2023-02-07T03:30:36;8.10;;;6.17;;
9461;SDS011;4769;42.660;23.262;2023-02-07T03:33:06;7.33;;;5.97;;
9461;SDS011;4769;42.660;23.262;2023-02-07T03:35:38;7.60;;;5.83;;
9461;SDS011;4769;42.660;23.262;2023-02-07T03:38:08;7.40;;;5.70;;
9461;SDS011;4769;42.660;23.262;2023-02-07T03:40:37;7.70;;;5.67;;
9461;SDS011;4769;42.660;23.262;2023-02-07T03:43:09;7.53;;;5.63;;
9461;SDS011;4769;42.660;23.262;2023-02-07T03:45:38;8.37;;;6.60;;
9461;SDS011;4769;42.660;23.262;2023-02-07T03:48:06;7.83;;;6.10;;
9461;SDS011;4769;42.660;23.262;2023-02-07T03:50:33;8.13;;;5.73;;
9461;SDS011;4769;42.660;23.262;2023-02-07T03:53:01;7.90;;;5.70;;
9461;SDS011;4769;42.660;23.262;2023-02-07T03:55:28;7.67;;;6.40;;
9461;SDS011;4769;42.660;23.262;2023-02-07T03:57:55;8.40;;;6.07;;
9461;SDS011;4769;42.660;23.262;2023-02-07T04:00:22;8.30;;;6.23;;
9461;SDS011;4769;42.660;23.262;2023-02-07T04:02:49;8.77;;;6.80;;
9461;SDS011;4769;42.660;23.262;2023-02-07T04:05:16;9.23;;;5.83;;
9461;SDS011;4769;42.660;23.262;2023-02-07T04:07:43;8.27;;;5.70;;
9461;SDS011;4769;42.660;23.262;2023-02-07T04:10:11;8.40;;;6.47;;
9461;SDS011;4769;42.660;23.262;2023-02-07T04:12:38;10.60;;;7.40;;
9461;SDS011;4769;42.660;23.262;2023-02-07T04:15:05;12.13;;;8.27;;
9461;SDS011;4769;42.660;23.262;2023-02-07T04:17:32;10.93;;;8.43;;
9461;SDS011;4769;42.660;23.262;2023-02-07T04:19:59;11.87;;;7.73;;
9461;SDS011;4769;42.660;23.262;2023-02-07T04:22:26;11.70;;;8.27;;
9461;SDS011;4769;42.660;23.262;2023-02-07T04:24:53;12.43;;;8.13;;
9461;SDS011;4769;42.660;23.262;2023-02-07T04:27:21;12.83;;;8.93;;
9461;SDS011;4769;42.660;23.262;2023-02-07T04:29:48;13.80;;;8.90;;
9461;SDS011;4769;42.660;23.262;2023-02-07T04:32:16;11.70;;;8.63;;
9461;SDS011;4769;42.660;23.262;2023-02-07T04:34:43;11.20;;;8.17;;
9461;SDS011;4769;42.660;23.262;2023-02-07T04:37:10;13.03;;;8.70;;
9461;SDS011;4769;42.660;23.262;2023-02-07T04:39:38;12.10;;;8.10;;
9461;SDS011;4769;42.660;23.262;2023-02-07T04:42:04;12.20;;;8.67;;
9461;SDS011;4769;42.660;23.262;2023-02-07T04:44:33;10.23;;;7.67;;
9461;SDS011;4769;42.660;23.262;2023-02-07T04:47:00;11.63;;;8.20;;
9461;SDS011;4769;42.660;23.262;2023-02-07T04:49:27;14.13;;;7.80;;
9461;SDS011;4769;42.660;23.262;2023-02-07T04:51:53;11.63;;;8.10;;
9461;SDS011;4769;42.660;23.262;2023-02-07T04:54:20;9.97;;;7.50;;
9461;SDS011;4769;42.660;23.262;2023-02-07T04:56:47;13.80;;;7.47;;
9461;SDS011;4769;42.660;23.262;2023-02-07T04:59:14;9.57;;;7.30;;
9461;SDS011;4769;42.660;23.262;2023-02-07T05:01:42;11.47;;;7.83;;
9461;SDS011;4769;42.660;23.262;2023-02-07T05:04:09;18.70;;;12.40;;
9461;SDS011;4769;42.660;23.262;2023-02-07T05:06:36;21.07;;;12.70;;
9461;SDS011;4769;42.660;23.262;2023-02-07T05:09:03;17.83;;;12.97;;
9461;SDS011;4769;42.660;23.262;2023-02-07T05:11:30;18.60;;;13.10;;
9461;SDS011;4769;42.660;23.262;2023-02-07T05:13:57;18.00;;;12.57;;
9461;SDS011;4769;42.660;23.262;2023-02-07T05:16:24;20.33;;;13.90;;
9461;SDS011;4769;42.660;23.262;2023-02-07T05:18:52;22.70;;;15.67;;
9461;SDS011;4769;42.660;23.262;2023-02-07T05:21:19;18.87;;;12.30;;
9461;SDS011;4769;42.660;23.262;2023-02-07T05:23:46;16.53;;;11.80;;
9461;SDS011;4769;42.660;23.262;2023-02-07T05:26:13;19.47;;;12.43;;
9461;SDS011;4769;42.660;23.262;2023-02-07T05:28:41;18.33;;;12.73;;
9461;SDS011;4769;42.660;23.262;2023-02-07T05:31:08;18.47;;;12.23;;
9461;SDS011;4769;42.660;23.262;2023-02-07T05:33:35;20.10;;;12.87;;
9461;SDS011;4769;42.660;23.262;2023-02-07T05:36:02;19.40;;;13.83;;
9461;SDS011;4769;42.660;23.262;2023-02-07T05:38:30;17.90;;;13.60;;
9461;SDS011;4769;42.660;23.262;2023-02-07T05:40:57;23.17;;;13.40;;
9461;SDS011;4769;42.660;23.262;2023-02-07T05:43:23;21.13;;;14.17;;
9461;SDS011;4769;42.660;23.262;2023-02-07T05:45:50;20.17;;;13.83;;
9461;SDS011;4769;42.660;23.262;2023-02-07T05:48:17;22.57;;;15.67;;
9461;SDS011;4769;42.660;23.262;2023-02-07T05:50:44;18.27;;;12.13;;
9461;SDS011;4769;42.660;23.262;2023-02-07T05:53:13;16.73;;;12.27;;
9461;SDS011;4769;42.660;23.262;2023-02-07T05:55:40;18.67;;;14.88;;
9461;SDS011;4769;42.660;23.262;2023-02-07T05:58:07;18.92;;;15.30;;
9461;SDS011;4769;42.660;23.262;2023-02-07T06:00:33;18.53;;;12.73;;
9461;SDS011;4769;42.660;23.262;2023-02-07T06:03:00;19.53;;;12.63;;
9461;SDS011;4769;42.660;23.262;2023-02-07T06:05:27;18.03;;;12.07;;
9461;SDS011;4769;42.660;23.262;2023-02-07T06:07:55;16.95;;;13.73;;
9461;SDS011;4769;42.660;23.262;2023-02-07T06:10:24;21.50;;;14.27;;
9461;SDS011;4769;42.660;23.262;2023-02-07T06:12:51;26.93;;;15.27;;
9461;SDS011;4769;42.660;23.262;2023-02-07T06:15:17;22.50;;;15.20;;
9461;SDS011;4769;42.660;23.262;2023-02-07T06:17:44;24.50;;;14.43;;
9461;SDS011;4769;42.660;23.262;2023-02-07T06:20:11;27.13;;;16.23;;
9461;SDS011;4769;42.660;23.262;2023-02-07T06:22:38;40.47;;;21.00;;
9461;SDS011;4769;42.660;23.262;2023-02-07T06:25:05;38.37;;;19.33;;
9461;SDS011;4769;42.660;23.262;2023-02-07T06:27:37;39.67;;;20.03;;
9461;SDS011;4769;42.660;23.262;2023-02-07T06:30:05;35.80;;;19.03;;
9461;SDS011;4769;42.660;23.262;2023-02-07T06:32:33;23.43;;;15.03;;
9461;SDS011;4769;42.660;23.262;2023-02-07T06:34:59;21.73;;;14.07;;
9461;SDS011;4769;42.660;23.262;2023-02-07T06:37:27;23.93;;;15.33;;
9461;SDS011;4769;42.660;23.262;2023-02-07T06:39:54;31.07;;;18.43;;
9461;SDS011;4769;42.660;23.262;2023-02-07T06:42:20;25.17;;;15.93;;
9461;SDS011;4769;42.660;23.262;2023-02-07T06:44:49;21.30;;;14.70;;
9461;SDS011;4769;42.660;23.262;2023-02-07T06:47:16;22.60;;;15.07;;
9461;SDS011;4769;42.660;23.262;2023-02-07T06:49:44;18.37;;;12.10;;
9461;SDS011;4769;42.660;23.262;2023-02-07T06:52:11;19.43;;;13.50;;
9461;SDS011;4769;42.660;23.262;2023-02-07T06:54:38;19.33;;;12.97;;
9461;SDS011;4769;42.660;23.262;2023-02-07T06:57:05;18.37;;;12.50;;
9461;SDS011;4769;42.660;23.262;2023-02-07T06:59:32;23.93;;;15.60;;
9461;SDS011;4769;42.660;23.262;2023-02-07T07:02:00;19.73;;;13.67;;
9461;SDS011;4769;42.660;23.262;2023-02-07T07:04:27;19.40;;;13.20;;
9461;SDS011;4769;42.660;23.262;2023-02-07T07:06:54;20.10;;;13.33;;
9461;SDS011;4769;42.660;23.262;2023-02-07T07:09:21;24.83;;;16.40;;
9461;SDS011;4769;42.660;23.262;2023-02-07T07:11:48;21.60;;;14.03;;
9461;SDS011;4769;42.660;23.262;2023-02-07T07:14:15;18.43;;;12.40;;
9461;SDS011;4769;42.660;23.262;2023-02-07T07:16:41;21.57;;;14.20;;
9461;SDS011;4769;42.660;23.262;2023-02-07T07:19:10;18.57;;;13.77;;
9461;SDS011;4769;42.660;23.262;2023-02-07T07:21:37;18.37;;;13.17;;
9461;SDS011;4769;42.660;23.262;2023-02-07T07:24:05;17.87;;;12.33;;
9461;SDS011;4769;42.660;23.262;2023-02-07T07:26:32;17.13;;;12.17;;
9461;SDS011;4769;42.660;23.262;2023-02-07T07:28:58;16.83;;;12.50;;
9461;SDS011;4769;42.660;23.262;2023-02-07T07:31:26;22.00;;;13.43;;
9461;SDS011;4769;42.660;23.262;2023-02-07T07:33:53;21.30;;;13.35;;
9461;SDS011;4769;42.660;23.262;2023-02-07T07:36:21;17.07;;;12.40;;
9461;SDS011;4769;42.660;23.262;2023-02-07T07:38:48;16.17;;;11.77;;
9461;SDS011;4769;42.660;23.262;2023-02-07T07:41:15;18.80;;;12.80;;
9461;SDS011;4769;42.660;23.262;2023-02-07T07:43:42;18.93;;;13.37;;
9461;SDS011;4769;42.660;23.262;2023-02-07T07:46:09;18.90;;;13.43;;
9461;SDS011;4769;42.660;23.262;2023-02-07T07:48:35;19.13;;;13.10;;
9461;SDS011;4769;42.660;23.262;2023-02-07T07:51:02;26.10;;;16.90;;
9461;SDS011;4769;42.660;23.262;2023-02-07T07:53:31;16.77;;;11.60;;
9461;SDS011;4769;42.660;23.262;2023-02-07T07:55:58;18.43;;;12.00;;
9461;SDS011;4769;42.660;23.262;2023-02-07T07:58:26;19.17;;;13.57;;
9461;SDS011;4769;42.660;23.262;2023-02-07T08:00:52;23.70;;;16.10;;
9461;SDS011;4769;42.660;23.262;2023-02-07T08:03:20;18.97;;;14.23;;
9461;SDS011;4769;42.660;23.262;2023-02-07T08:05:47;18.97;;;13.80;;
9461;SDS011;4769;42.660;23.262;2023-02-07T08:08:14;21.23;;;14.70;;
9461;SDS011;4769;42.660;23.262;2023-02-07T08:10:44;17.70;;;12.53;;
9461;SDS011;4769;42.660;23.262;2023-02-07T08:13:11;17.57;;;12.90;;
9461;SDS011;4769;42.660;23.262;2023-02-07T08:15:38;15.80;;;11.87;;
9461;SDS011;4769;42.660;23.262;2023-02-07T08:18:05;18.35;;;15.30;;
9461;SDS011;4769;42.660;23.262;2023-02-07T08:20:32;16.73;;;12.90;;
9461;SDS011;4769;42.660;23.262;2023-02-07T08:22:59;17.30;;;11.80;;
9461;SDS011;4769;42.660;23.262;2023-02-07T08:25:26;16.03;;;12.27;;
9461;SDS011;4769;42.660;23.262;2023-02-07T08:27:54;16.97;;;12.30;;
9461;SDS011;4769;42.660;23.262;2023-02-07T08:30:21;18.20;;;12.73;;
9461;SDS011;4769;42.660;23.262;2023-02-07T08:32:48;16.90;;;11.83;;
9461;SDS011;4769;42.660;23.262;2023-02-07T08:35:16;20.87;;;12.30;;
9461;SDS011;4769;42.660;23.262;2023-02-07T08:37:43;16.67;;;11.90;;
9461;SDS011;4769;42.660;23.262;2023-02-07T08:40:10;14.80;;;10.90;;
9461;SDS011;4769;42.660;23.262;2023-02-07T08:42:38;17.30;;;11.37;;
9461;SDS011;4769;42.660;23.262;2023-02-07T08:45:07;17.83;;;11.87;;
9461;SDS011;4769;42.660;23.262;2023-02-07T08:47:34;18.33;;;11.50;;
9461;SDS011;4769;42.660;23.262;2023-02-07T08:50:01;16.40;;;11.53;;
9461;SDS011;4769;42.660;23.262;2023-02-07T08:52:28;19.97;;;13.43;;
9461;SDS011;4769;42.660;23.262;2023-02-07T08:54:55;17.57;;;11.47;;
9461;SDS011;4769;42.660;23.262;2023-02-07T08:57:22;19.40;;;12.80;;
9461;SDS011;4769;42.660;23.262;2023-02-07T08:59:49;22.43;;;12.63;;
9461;SDS011;4769;42.660;23.262;2023-02-07T09:02:18;15.00;;;10.87;;
9461;SDS011;4769;42.660;23.262;2023-02-07T09:04:45;15.77;;;11.70;;
9461;SDS011;4769;42.660;23.262;2023-02-07T09:07:12;14.57;;;10.30;;
9461;SDS011;4769;42.660;23.262;2023-02-07T09:09:39;20.47;;;14.40;;
9461;SDS011;4769;42.660;23.262;2023-02-07T09:12:07;16.23;;;11.17;;
9461;SDS011;4769;42.660;23.262;2023-02-07T09:14:34;16.80;;;10.27;;
9461;SDS011;4769;42.660;23.262;2023-02-07T09:17:02;16.30;;;10.53;;
9461;SDS011;4769;42.660;23.262;2023-02-07T09:19:31;13.70;;;10.20;;
9461;SDS011;4769;42.660;23.262;2023-02-07T09:21:58;15.30;;;10.10;;
9461;SDS011;4769;42.660;23.262;2023-02-07T09:24:25;14.70;;;10.03;;
9461;SDS011;4769;42.660;23.262;2023-02-07T09:26:52;15.87;;;9.90;;
9461;SDS011;4769;42.660;23.262;2023-02-07T09:29:18;14.23;;;10.73;;
9461;SDS011;4769;42.660;23.262;2023-02-07T09:31:46;17.73;;;10.80;;
9461;SDS011;4769;42.660;23.262;2023-02-07T09:34:13;15.37;;;10.60;;
9461;SDS011;4769;42.660;23.262;2023-02-07T09:36:41;17.00;;;11.83;;
9461;SDS011;4769;42.660;23.262;2023-02-07T09:39:08;15.93;;;11.13;;
9461;SDS011;4769;42.660;23.262;2023-02-07T09:41:37;20.63;;;11.83;;
9461;SDS011;4769;42.660;23.262;2023-02-07T09:44:11;14.47;;;10.20;;
9461;SDS011;4769;42.660;23.262;2023-02-07T09:46:43;16.17;;;10.90;;
9461;SDS011;4769;42.660;23.262;2023-02-07T09:49:16;13.93;;;10.00;;
9461;SDS011;4769;42.660;23.262;2023-02-07T09:51:54;16.47;;;12.37;;
9461;SDS011;4769;42.660;23.262;2023-02-07T09:54:23;15.17;;;11.50;;
9461;SDS011;4769;42.660;23.262;2023-02-07T09:56:53;15.70;;;11.40;;
9461;SDS011;4769;42.660;23.262;2023-02-07T09:59:22;15.33;;;10.80;;
9461;SDS011;4769;42.660;23.262;2023-02-07T10:01:54;14.47;;;10.07;;
9461;SDS011;4769;42.660;23.262;2023-02-07T10:04:29;13.60;;;9.10;;
9461;SDS011;4769;42.660;23.262;2023-02-07T10:07:04;11.93;;;8.87;;
9461;SDS011;4769;42.660;23.262;2023-02-07T10:09:35;15.43;;;10.30;;
9461;SDS011;4769;42.660;23.262;2023-02-07T10:12:06;16.30;;;10.53;;
9461;SDS011;4769;42.660;23.262;2023-02-07T10:15:00;18.87;;;11.73;;
9461;SDS011;4769;42.660;23.262;2023-02-07T10:17:42;16.83;;;12.10;;
9461;SDS011;4769;42.660;23.262;2023-02-07T10:20:25;19.63;;;13.93;;
9461;SDS011;4769;42.660;23.262;2023-02-07T10:23:02;19.17;;;13.17;;
9461;SDS011;4769;42.660;23.262;2023-02-07T10:25:42;15.53;;;11.20;;
9461;SDS011;4769;42.660;23.262;2023-02-07T10:28:28;18.73;;;11.47;;
9461;SDS011;4769;42.660;23.262;2023-02-07T10:31:11;16.10;;;11.90;;
9461;SDS011;4769;42.660;23.262;2023-02-07T10:33:42;18.30;;;13.60;;
9461;SDS011;4769;42.660;23.262;2023-02-07T10:36:13;14.83;;;11.37;;
9461;SDS011;4769;42.660;23.262;2023-02-07T10:38:43;14.97;;;11.47;;
9461;SDS011;4769;42.660;23.262;2023-02-07T10:41:18;15.80;;;11.37;;
9461;SDS011;4769;42.660;23.262;2023-02-07T10:43:48;15.53;;;11.10;;
9461;SDS011;4769;42.660;23.262;2023-02-07T10:46:17;15.80;;;11.90;;
9461;SDS011;4769;42.660;23.262;2023-02-07T10:48:47;20.40;;;14.00;;
9461;SDS011;4769;42.660;23.262;2023-02-07T10:51:17;17.60;;;12.77;;
9461;SDS011;4769;42.660;23.262;2023-02-07T10:54:01;18.40;;;12.90;;
9461;SDS011;4769;42.660;23.262;2023-02-07T10:56:32;16.83;;;12.10;;
9461;SDS011;4769;42.660;23.262;2023-02-07T10:59:01;16.30;;;11.87;;
9461;SDS011;4769;42.660;23.262;2023-02-07T11:01:29;14.83;;;10.57;;
9461;SDS011;4769;42.660;23.262;2023-02-07T11:03:57;13.07;;;9.57;;
9461;SDS011;4769;42.660;23.262;2023-02-07T11:06:25;14.83;;;10.00;;
9461;SDS011;4769;42.660;23.262;2023-02-07T11:11:37;14.10;;;9.27;;
9461;SDS011;4769;42.660;23.262;2023-02-07T11:14:10;13.17;;;9.80;;
9461;SDS011;4769;42.660;23.262;2023-02-07T11:16:41;13.27;;;9.33;;
9461;SDS011;4769;42.660;23.262;2023-02-07T11:19:12;19.50;;;11.07;;
9461;SDS011;4769;42.660;23.262;2023-02-07T11:21:42;16.40;;;10.60;;
9461;SDS011;4769;42.660;23.262;2023-02-07T11:24:13;11.90;;;8.83;;
9461;SDS011;4769;42.660;23.262;2023-02-07T11:26:48;15.57;;;9.10;;
9461;SDS011;4769;42.660;23.262;2023-02-07T11:29:19;18.40;;;11.47;;
9461;SDS011;4769;42.660;23.262;2023-02-07T11:31:48;13.77;;;9.70;;
9461;SDS011;4769;42.660;23.262;2023-02-07T11:37:17;15.80;;;10.07;;
9461;SDS011;4769;42.660;23.262;2023-02-07T11:39:56;11.90;;;8.77;;
9461;SDS011;4769;42.660;23.262;2023-02-07T11:42:42;11.63;;;8.20;;
9461;SDS011;4769;42.660;23.262;2023-02-07T11:45:11;15.90;;;8.43;;
9461;SDS011;4769;42.660;23.262;2023-02-07T11:47:40;13.50;;;9.40;;
9461;SDS011;4769;42.660;23.262;2023-02-07T11:50:11;12.07;;;9.27;;
9461;SDS011;4769;42.660;23.262;2023-02-07T11:52:48;11.07;;;7.97;;
9461;SDS011;4769;42.660;23.262;2023-02-07T11:55:20;12.33;;;8.17;;
9461;SDS011;4769;42.660;23.262;2023-02-07T11:57:48;11.77;;;8.93;;
9461;SDS011;4769;42.660;23.262;2023-02-07T12:00:17;10.50;;;8.03;;
9461;SDS011;4769;42.660;23.262;2023-02-07T12:02:48;11.73;;;8.53;;
9461;SDS011;4769;42.660;23.262;2023-02-07T12:05:19;12.97;;;8.90;;
9461;SDS011;4769;42.660;23.262;2023-02-07T12:07:48;13.00;;;9.67;;
9461;SDS011;4769;42.660;23.262;2023-02-07T12:10:20;11.83;;;9.37;;
9461;SDS011;4769;42.660;23.262;2023-02-07T12:12:49;11.97;;;9.07;;
9461;SDS011;4769;42.660;23.262;2023-02-07T12:15:20;13.23;;;9.87;;
9461;SDS011;4769;42.660;23.262;2023-02-07T12:17:52;13.80;;;9.20;;
9461;SDS011;4769;42.660;23.262;2023-02-07T12:20:25;15.47;;;10.60;;
9461;SDS011;4769;42.660;23.262;2023-02-07T12:22:54;15.80;;;11.30;;
9461;SDS011;4769;42.660;23.262;2023-02-07T12:25:34;15.97;;;10.83;;
9461;SDS011;4769;42.660;23.262;2023-02-07T12:28:09;14.33;;;10.17;;
9461;SDS011;4769;42.660;23.262;2023-02-07T12:30:43;16.63;;;11.40;;
9461;SDS011;4769;42.660;23.262;2023-02-07T12:33:18;15.17;;;11.43;;
9461;SDS011;4769;42.660;23.262;2023-02-07T12:35:54;13.97;;;9.93;;
9461;SDS011;4769;42.660;23.262;2023-02-07T12:38:27;15.30;;;10.50;;
9461;SDS011;4769;42.660;23.262;2023-02-07T12:41:03;13.93;;;10.57;;
9461;SDS011;4769;42.660;23.262;2023-02-07T12:43:39;16.13;;;10.90;;
9461;SDS011;4769;42.660;23.262;2023-02-07T12:46:14;14.50;;;10.57;;
9461;SDS011;4769;42.660;23.262;2023-02-07T12:48:53;20.07;;;11.87;;
9461;SDS011;4769;42.660;23.262;2023-02-07T12:51:40;16.67;;;12.00;;
9461;SDS011;4769;42.660;23.262;2023-02-07T12:54:16;16.90;;;11.53;;
9461;SDS011;4769;42.660;23.262;2023-02-07T12:56:56;14.43;;;10.80;;
9461;SDS011;4769;42.660;23.262;2023-02-07T12:59:31;18.47;;;12.77;;
9461;SDS011;4769;42.660;23.262;2023-02-07T13:02:18;14.83;;;11.03;;
9461;SDS011;4769;42.660;23.262;2023-02-07T13:05:03;15.40;;;10.53;;
9461;SDS011;4769;42.660;23.262;2023-02-07T13:07:44;17.97;;;11.27;;
9461;SDS011;4769;42.660;23.262;2023-02-07T13:10:21;15.87;;;11.13;;
9461;SDS011;4769;42.660;23.262;2023-02-07T13:12:57;14.73;;;11.07;;
9461;SDS011;4769;42.660;23.262;2023-02-07T13:15:32;22.70;;;13.33;;
9461;SDS011;4769;42.660;23.262;2023-02-07T13:18:05;18.50;;;12.20;;
9461;SDS011;4769;42.660;23.262;2023-02-07T13:20:45;21.13;;;12.67;;
9461;SDS011;4769;42.660;23.262;2023-02-07T13:23:19;20.00;;;11.93;;
9461;SDS011;4769;42.660;23.262;2023-02-07T13:25:48;20.53;;;11.37;;
9461;SDS011;4769;42.660;23.262;2023-02-07T13:28:21;15.20;;;10.73;;
9461;SDS011;4769;42.660;23.262;2023-02-07T13:30:51;14.93;;;10.67;;
9461;SDS011;4769;42.660;23.262;2023-02-07T13:33:32;83.33;;;26.60;;
9461;SDS011;4769;42.660;23.262;2023-02-07T13:36:04;29.47;;;15.80;;
9461;SDS011;4769;42.660;23.262;2023-02-07T13:38:45;20.70;;;12.07;;
9461;SDS011;4769;42.660;23.262;2023-02-07T13:41:25;17.17;;;11.17;;
9461;SDS011;4769;42.660;23.262;2023-02-07T13:44:02;17.27;;;11.50;;
9461;SDS011;4769;42.660;23.262;2023-02-07T13:46:43;15.60;;;10.97;;
9461;SDS011;4769;42.660;23.262;2023-02-07T13:49:38;16.40;;;11.37;;
9461;SDS011;4769;42.660;23.262;2023-02-07T13:52:09;38.17;;;20.37;;
9461;SDS011;4769;42.660;23.262;2023-02-07T13:54:40;47.93;;;24.63;;
9461;SDS011;4769;42.660;23.262;2023-02-07T13:57:18;30.30;;;18.13;;
9461;SDS011;4769;42.660;23.262;2023-02-07T14:00:07;27.90;;;16.47;;
9461;SDS011;4769;42.660;23.262;2023-02-07T14:02:42;40.43;;;23.17;;
9461;SDS011;4769;42.660;23.262;2023-02-07T14:05:18;29.23;;;17.03;;
9461;SDS011;4769;42.660;23.262;2023-02-07T14:07:48;20.47;;;13.87;;
9461;SDS011;4769;42.660;23.262;2023-02-07T14:13:21;13.53;;;10.03;;
9461;SDS011;4769;42.660;23.262;2023-02-07T14:16:01;14.67;;;10.53;;
9461;SDS011;4769;42.660;23.262;2023-02-07T14:18:43;14.70;;;10.33;;
9461;SDS011;4769;42.660;23.262;2023-02-07T14:24:17;22.33;;;14.80;;
9461;SDS011;4769;42.660;23.262;2023-02-07T14:38:29;24.27;;;15.37;;
9461;SDS011;4769;42.660;23.262;2023-02-07T14:41:01;17.97;;;12.13;;
9461;SDS011;4769;42.660;23.262;2023-02-07T14:43:33;15.13;;;11.33;;
9461;SDS011;4769;42.660;23.262;2023-02-07T14:46:08;17.03;;;12.47;;
9461;SDS011;4769;42.660;23.262;2023-02-07T14:48:41;14.60;;;10.43;;
9461;SDS011;4769;42.660;23.262;2023-02-07T14:51:16;18.67;;;12.57;;
9461;SDS011;4769;42.660;23.262;2023-02-07T14:53:50;19.73;;;13.77;;
9461;SDS011;4769;42.660;23.262;2023-02-07T14:56:30;24.17;;;15.43;;
9461;SDS011;4769;42.660;23.262;2023-02-07T14:59:07;27.03;;;16.33;;
9461;SDS011;4769;42.660;23.262;2023-02-07T15:01:39;20.90;;;14.47;;
9461;SDS011;4769;42.660;23.262;2023-02-07T15:04:08;18.97;;;13.27;;
9461;SDS011;4769;42.660;23.262;2023-02-07T15:06:38;19.40;;;13.43;;
9461;SDS011;4769;42.660;23.262;2023-02-07T15:09:13;18.83;;;13.50;;
9461;SDS011;4769;42.660;23.262;2023-02-07T15:11:43;19.60;;;13.17;;
9461;SDS011;4769;42.660;23.262;2023-02-07T15:14:16;24.20;;;16.23;;
9461;SDS011;4769;42.660;23.262;2023-02-07T15:16:48;20.50;;;14.47;;
9461;SDS011;4769;42.660;23.262;2023-02-07T15:19:19;23.53;;;15.60;;
9461;SDS011;4769;42.660;23.262;2023-02-07T15:21:50;28.47;;;17.53;;
9461;SDS011;4769;42.660;23.262;2023-02-07T15:24:20;28.10;;;17.33;;
9461;SDS011;4769;42.660;23.262;2023-02-07T15:26:53;24.50;;;16.73;;
9461;SDS011;4769;42.660;23.262;2023-02-07T15:29:23;22.83;;;14.73;;
9461;SDS011;4769;42.660;23.262;2023-02-07T15:31:51;19.70;;;14.53;;
9461;SDS011;4769;42.660;23.262;2023-02-07T15:34:20;24.23;;;15.93;;